createdAt,value
2023-07-19T00:01:20.099Z,5.60
2023-07-19T00:14:19.872Z,5.10
2023-07-19T00:27:19.845Z,5.80
2023-07-19T00:40:19.840Z,5.60
2023-07-19T00:53:19.879Z,6.30
2023-07-19T01:06:19.868Z,6.90
2023-07-19T01:19:19.857Z,6.60
2023-07-19T01:32:19.895Z,6.30
2023-07-19T01:45:19.852Z,6.70
2023-07-19T01:58:19.866Z,6.20
2023-07-19T02:11:20.206Z,6.40
2023-07-19T02:24:19.891Z,5.90
2023-07-19T02:37:19.896Z,6.50
2023-07-19T02:50:19.943Z,6.20
2023-07-19T03:03:19.996Z,6.20
2023-07-19T03:16:20.003Z,5.50
2023-07-19T03:29:19.971Z,4.70
2023-07-19T03:42:19.951Z,4.60
2023-07-19T03:55:20.044Z,4.40
2023-07-19T04:08:19.983Z,4.20
2023-07-19T04:21:20.202Z,4.50
2023-07-19T04:34:20.020Z,4.10
2023-07-19T04:47:19.996Z,3.70
2023-07-19T05:00:19.997Z,4.60
2023-07-19T05:13:20.033Z,4.10
2023-07-19T05:26:20.038Z,4.30
2023-07-19T05:39:20.060Z,4.60
2023-07-19T05:52:20.041Z,4.70
2023-07-19T06:05:20.056Z,4.10
2023-07-19T06:18:20.059Z,5.40
2023-07-19T06:31:20.234Z,4.50
2023-07-19T06:44:20.081Z,4.30
2023-07-19T06:57:20.083Z,4.10
2023-07-19T07:10:20.081Z,5.70
2023-07-19T07:23:20.109Z,7.00
2023-07-19T07:36:20.123Z,7.70
2023-07-19T07:49:20.113Z,8.10
2023-07-19T08:02:20.124Z,8.70
2023-07-19T08:15:20.118Z,8.40
2023-07-19T08:28:20.112Z,8.50
2023-07-19T08:41:20.428Z,8.50
2023-07-19T08:54:20.136Z,8.50
2023-07-19T09:07:20.136Z,8.30
2023-07-19T09:20:20.142Z,8.30
2023-07-19T09:33:20.189Z,8.20
2023-07-19T09:46:20.514Z,7.20
2023-07-19T09:59:20.156Z,7.60
2023-07-19T10:12:20.160Z,6.60
2023-07-19T10:25:20.139Z,6.70
2023-07-19T10:38:20.150Z,6.10
2023-07-19T10:51:20.510Z,5.70
2023-07-19T11:04:20.192Z,6.10
2023-07-19T11:17:20.229Z,6.20
2023-07-19T11:30:20.216Z,6.40
2023-07-19T11:43:20.268Z,6.40
2023-07-19T11:56:20.430Z,6.00
2023-07-19T12:09:20.296Z,5.50
2023-07-19T12:22:20.302Z,5.00
2023-07-19T12:35:20.289Z,5.20
2023-07-19T12:48:20.370Z,5.20
2023-07-19T13:01:20.413Z,5.50
2023-07-19T13:14:20.345Z,5.40
2023-07-19T13:27:20.347Z,5.10
2023-07-19T13:40:20.389Z,5.30
2023-07-19T13:53:20.393Z,5.80
2023-07-19T14:06:21.128Z,5.90
2023-07-19T14:19:20.389Z,6.00
2023-07-19T14:32:22.089Z,5.60
2023-07-19T14:45:20.404Z,5.90
2023-07-19T14:58:20.446Z,5.80
2023-07-19T15:11:20.463Z,6.30
2023-07-19T15:24:21.484Z,5.80
2023-07-19T15:37:20.419Z,6.20
2023-07-19T15:50:20.433Z,6.10
2023-07-19T16:03:20.517Z,6.50
2023-07-19T16:16:20.522Z,6.80
2023-07-19T16:29:20.496Z,5.00
2023-07-19T16:42:20.523Z,6.30
2023-07-19T16:55:20.530Z,6.50
2023-07-19T17:08:20.489Z,6.70
2023-07-19T17:21:20.733Z,7.50
2023-07-19T17:34:20.952Z,7.20
2023-07-19T17:47:20.519Z,7.30
2023-07-19T18:00:20.527Z,6.70
2023-07-19T18:13:20.516Z,6.80
2023-07-19T18:26:20.544Z,6.40
2023-07-19T18:39:20.587Z,5.90
2023-07-19T18:52:22.491Z,4.90
2023-07-19T19:05:20.610Z,5.10
2023-07-19T19:18:20.597Z,4.80
2023-07-19T19:31:20.977Z,4.70
2023-07-19T19:44:20.641Z,4.50
2023-07-19T19:57:21.221Z,4.30
2023-07-19T20:10:21.583Z,4.60
2023-07-19T20:23:21.358Z,3.90
2023-07-19T20:49:20.690Z,3.60
2023-07-19T21:02:20.644Z,3.60
2023-07-19T21:15:20.675Z,3.40
2023-07-19T21:28:20.658Z,3.10
2023-07-19T21:41:21.097Z,4.20
2023-07-19T21:54:20.668Z,3.80
2023-07-19T22:07:20.676Z,3.40
2023-07-19T22:20:20.670Z,3.70
2023-07-19T22:33:20.664Z,4.00
2023-07-19T22:46:21.070Z,4.50
2023-07-19T22:59:20.675Z,4.40
2023-07-19T23:12:20.688Z,4.20
2023-07-19T23:25:20.671Z,4.60
2023-07-19T23:38:20.724Z,4.00
2023-07-19T23:51:20.669Z,5.10
